createdAt,value
2022-10-20T00:02:15.358Z,8.77
2022-10-20T00:04:42.048Z,8.90
2022-10-20T00:07:08.690Z,8.53
2022-10-20T00:09:35.323Z,9.53
2022-10-20T00:12:01.974Z,9.00
2022-10-20T00:14:34.883Z,9.17
2022-10-20T00:17:27.876Z,9.87
2022-10-20T00:19:54.539Z,9.43
2022-10-20T00:22:21.198Z,10.10
2022-10-20T00:24:47.825Z,10.50
2022-10-20T00:27:14.448Z,10.37
2022-10-20T00:29:41.161Z,10.20
2022-10-20T00:32:07.792Z,10.07
2022-10-20T00:34:34.436Z,9.57
2022-10-20T00:37:01.102Z,9.40
2022-10-20T00:39:27.769Z,10.40
2022-10-20T00:41:54.415Z,9.43
2022-10-20T00:44:49.045Z,9.53
2022-10-20T00:47:24.801Z,9.53
2022-10-20T00:49:52.195Z,9.73
2022-10-20T00:52:22.165Z,9.87
2022-10-20T00:54:49.717Z,9.03
2022-10-20T00:57:17.424Z,9.03
2022-10-20T00:59:44.725Z,9.03
2022-10-20T01:02:11.989Z,8.80
2022-10-20T01:04:39.033Z,8.57
2022-10-20T01:07:06.100Z,8.20
2022-10-20T01:09:33.606Z,8.00
2022-10-20T01:12:19.463Z,7.73
2022-10-20T01:14:55.240Z,6.70
2022-10-20T01:17:33.463Z,6.57
2022-10-20T01:20:28.523Z,6.53
2022-10-20T01:23:40.210Z,6.13
2022-10-20T01:26:44.457Z,6.37
2022-10-20T01:29:25.477Z,6.17
2022-10-20T01:32:00.765Z,6.70
2022-10-20T01:34:38.322Z,6.63
2022-10-20T01:37:34.272Z,6.20
2022-10-20T01:40:20.469Z,6.60
2022-10-20T01:42:49.804Z,6.37
2022-10-20T01:45:19.642Z,7.27
2022-10-20T01:47:48.712Z,6.17
2022-10-20T01:50:18.157Z,7.10
2022-10-20T01:52:44.913Z,6.50
2022-10-20T01:55:17.406Z,7.30
2022-10-20T01:58:27.187Z,6.70
2022-10-20T02:03:56.448Z,7.67
2022-10-20T02:06:32.026Z,7.53
2022-10-20T02:09:06.262Z,7.77
2022-10-20T02:11:48.399Z,7.97
2022-10-20T02:14:18.622Z,7.97
2022-10-20T02:16:49.366Z,7.97
2022-10-20T02:19:19.996Z,8.23
2022-10-20T02:21:47.284Z,7.90
2022-10-20T02:24:16.085Z,8.17
2022-10-20T02:26:43.679Z,8.03
2022-10-20T02:29:18.338Z,8.60
2022-10-20T02:31:48.268Z,7.63
2022-10-20T02:34:15.360Z,8.33
2022-10-20T02:36:43.565Z,7.90
2022-10-20T02:39:10.718Z,8.40
2022-10-20T02:41:38.321Z,8.23
2022-10-20T02:44:05.334Z,7.90
2022-10-20T02:46:31.996Z,8.43
2022-10-20T02:48:58.720Z,8.43
2022-10-20T02:51:25.387Z,7.80
2022-10-20T02:53:52.069Z,7.83
2022-10-20T02:56:18.780Z,8.07
2022-10-20T02:58:45.487Z,8.20
2022-10-20T03:01:12.159Z,8.93
2022-10-20T03:03:38.839Z,8.93
2022-10-20T03:06:13.765Z,9.07
2022-10-20T03:08:41.166Z,8.63
2022-10-20T03:11:07.868Z,9.57
2022-10-20T03:13:34.764Z,8.47
2022-10-20T03:16:02.237Z,9.07
2022-10-20T03:18:28.918Z,9.87
2022-10-20T03:20:55.664Z,9.17
2022-10-20T03:23:22.389Z,9.37
2022-10-20T03:25:49.123Z,9.43
2022-10-20T03:28:15.777Z,8.70
2022-10-20T03:30:42.545Z,8.93
2022-10-20T03:33:09.276Z,8.57
2022-10-20T03:35:35.951Z,8.57
2022-10-20T03:38:02.642Z,9.23
2022-10-20T03:40:29.314Z,8.90
2022-10-20T03:42:55.961Z,8.47
2022-10-20T03:45:22.639Z,8.50
2022-10-20T03:47:49.448Z,8.53
2022-10-20T03:50:16.275Z,7.97
2022-10-20T03:52:43.008Z,7.43
2022-10-20T03:55:09.849Z,8.20
2022-10-20T03:57:36.772Z,8.10
2022-10-20T04:00:04.568Z,7.77
2022-10-20T04:02:39.517Z,6.83
2022-10-20T04:05:06.832Z,7.90
2022-10-20T04:07:33.525Z,7.67
2022-10-20T04:10:03.618Z,7.43
2022-10-20T04:12:30.825Z,7.23
2022-10-20T04:14:58.320Z,6.70
2022-10-20T04:17:25.073Z,7.30
2022-10-20T04:19:51.888Z,7.20
2022-10-20T04:22:18.621Z,7.00
2022-10-20T04:24:45.294Z,7.50
2022-10-20T04:27:11.996Z,7.70
2022-10-20T04:29:38.728Z,7.03
2022-10-20T04:32:05.476Z,6.73
2022-10-20T04:34:32.208Z,7.57
2022-10-20T04:36:59.141Z,6.70
2022-10-20T04:39:25.856Z,6.90
2022-10-20T04:41:52.569Z,7.30
2022-10-20T04:44:19.261Z,6.77
2022-10-20T04:46:45.925Z,7.50
2022-10-20T04:49:12.621Z,7.53
2022-10-20T04:51:39.314Z,7.00
2022-10-20T04:56:37.808Z,6.67
2022-10-20T04:59:08.317Z,7.40
2022-10-20T05:01:38.776Z,8.40
2022-10-20T05:04:05.549Z,7.70
2022-10-20T05:06:33.208Z,8.77
2022-10-20T05:09:02.144Z,9.60
2022-10-20T05:11:30.280Z,11.37
2022-10-20T05:13:57.365Z,11.93
2022-10-20T05:16:24.413Z,11.40
2022-10-20T05:18:52.321Z,10.80
2022-10-20T05:21:24.381Z,10.90
2022-10-20T05:23:56.574Z,10.97
2022-10-20T05:26:23.765Z,10.73
2022-10-20T05:28:51.551Z,10.10
2022-10-20T05:31:20.852Z,10.70
2022-10-20T05:33:53.898Z,12.50
2022-10-20T05:36:26.715Z,11.33
2022-10-20T05:38:55.292Z,11.17
2022-10-20T05:41:40.238Z,10.40
2022-10-20T05:44:09.011Z,10.30
2022-10-20T05:46:43.612Z,9.80
2022-10-20T05:49:14.220Z,9.57
2022-10-20T05:51:41.398Z,9.90
2022-10-20T05:54:11.120Z,9.80
2022-10-20T05:56:37.933Z,10.17
2022-10-20T05:59:04.616Z,9.93
2022-10-20T06:01:48.342Z,11.07
2022-10-20T06:04:17.464Z,10.77
2022-10-20T06:06:44.262Z,11.10
2022-10-20T06:09:11.577Z,12.73
2022-10-20T06:11:39.693Z,11.60
2022-10-20T06:14:08.423Z,11.27
2022-10-20T06:16:35.745Z,11.73
2022-10-20T06:19:02.534Z,11.97
2022-10-20T06:21:33.320Z,11.83
2022-10-20T06:24:01.318Z,11.97
2022-10-20T06:26:29.991Z,12.37
2022-10-20T06:29:02.779Z,11.07
2022-10-20T06:31:42.620Z,12.30
2022-10-20T06:34:14.214Z,11.57
2022-10-20T06:36:42.095Z,11.13
2022-10-20T06:39:11.569Z,10.33
2022-10-20T06:41:38.290Z,11.03
2022-10-20T06:44:05.165Z,11.50
2022-10-20T06:46:34.277Z,11.73
2022-10-20T06:49:05.927Z,12.03
2022-10-20T06:51:33.672Z,11.20
2022-10-20T06:54:01.168Z,12.17
2022-10-20T06:56:29.982Z,11.60
2022-10-20T06:58:57.870Z,11.57
2022-10-20T07:01:27.792Z,12.43
2022-10-20T07:03:57.060Z,11.73
2022-10-20T07:06:26.431Z,11.90
2022-10-20T07:08:56.223Z,12.30
2022-10-20T07:11:27.845Z,12.93
2022-10-20T07:13:54.663Z,11.97
2022-10-20T07:16:23.887Z,10.97
2022-10-20T07:18:50.890Z,10.13
2022-10-20T07:21:23.283Z,9.60
2022-10-20T07:23:51.279Z,7.97
2022-10-20T07:26:23.679Z,6.60
2022-10-20T07:28:55.753Z,6.10
2022-10-20T07:31:38.013Z,5.90
2022-10-20T07:34:23.330Z,5.90
2022-10-20T07:36:51.474Z,5.13
2022-10-20T07:39:18.189Z,5.07
2022-10-20T07:41:47.327Z,5.15
2022-10-20T07:44:14.277Z,5.30
2022-10-20T07:46:40.978Z,5.45
2022-10-20T07:51:54.471Z,5.53
2022-10-20T07:54:21.244Z,4.90
2022-10-20T07:56:48.002Z,5.25
2022-10-20T07:59:14.795Z,5.07
2022-10-20T08:01:41.883Z,4.63
2022-10-20T08:04:09.082Z,4.82
2022-10-20T08:06:35.811Z,5.30
2022-10-20T08:09:02.815Z,5.75
2022-10-20T08:11:29.986Z,5.53
2022-10-20T08:13:56.641Z,5.05
2022-10-20T08:16:40.891Z,5.28
2022-10-20T08:19:19.426Z,5.45
2022-10-20T08:21:46.089Z,5.30
2022-10-20T08:24:12.760Z,5.25
2022-10-20T08:26:39.440Z,5.20
2022-10-20T08:29:06.595Z,4.90
2022-10-20T08:31:33.545Z,4.63
2022-10-20T08:34:00.561Z,4.10
2022-10-20T08:36:30.575Z,4.38
2022-10-20T08:39:03.581Z,4.85
2022-10-20T08:42:06.282Z,4.70
2022-10-20T08:44:34.486Z,4.82
2022-10-20T08:47:03.773Z,5.22
2022-10-20T08:49:33.951Z,4.57
2022-10-20T08:52:02.076Z,4.78
2022-10-20T08:54:29.460Z,4.43
2022-10-20T08:56:56.246Z,4.78
2022-10-20T08:59:34.471Z,5.07
2022-10-20T09:02:03.440Z,4.60
2022-10-20T09:04:47.393Z,5.53
2022-10-20T09:07:43.559Z,5.25
2022-10-20T09:10:16.285Z,5.03
2022-10-20T09:12:45.167Z,5.38
2022-10-20T09:15:14.158Z,5.13
2022-10-20T09:17:44.316Z,4.93
2022-10-20T09:20:27.518Z,5.00
2022-10-20T09:22:54.426Z,5.28
2022-10-20T09:25:25.220Z,5.45
2022-10-20T09:27:52.663Z,5.60
2022-10-20T09:30:21.183Z,5.18
2022-10-20T09:32:49.012Z,5.90
2022-10-20T09:35:20.410Z,5.35
2022-10-20T09:38:23.918Z,5.20
2022-10-20T09:41:09.585Z,5.28
2022-10-20T09:43:40.681Z,5.00
2022-10-20T09:46:10.841Z,5.07
2022-10-20T09:48:47.842Z,4.78
2022-10-20T09:51:20.147Z,4.70
2022-10-20T09:53:55.246Z,5.18
2022-10-20T09:56:31.932Z,4.63
2022-10-20T09:59:01.006Z,4.85
2022-10-20T10:01:27.819Z,5.13
2022-10-20T10:03:59.911Z,5.20
2022-10-20T10:06:31.796Z,4.85
2022-10-20T10:09:00.524Z,4.32
2022-10-20T10:11:33.287Z,4.68
2022-10-20T10:14:00.811Z,4.88
2022-10-20T10:16:28.348Z,4.60
2022-10-20T10:19:03.366Z,4.50
2022-10-20T10:21:42.919Z,4.82
2022-10-20T10:24:24.302Z,4.32
2022-10-20T10:26:55.230Z,4.28
2022-10-20T10:29:28.432Z,4.53
2022-10-20T10:32:13.876Z,4.53
2022-10-20T10:35:21.552Z,4.40
2022-10-20T10:37:48.932Z,4.53
2022-10-20T10:40:19.174Z,4.63
2022-10-20T10:43:13.796Z,4.18
2022-10-20T10:46:07.164Z,3.92
2022-10-20T10:48:58.929Z,4.22
2022-10-20T10:51:49.948Z,4.15
2022-10-20T10:54:38.538Z,4.38
2022-10-20T10:57:27.229Z,3.80
2022-10-20T10:59:54.957Z,4.40
2022-10-20T11:03:03.131Z,3.97
2022-10-20T11:05:37.269Z,4.32
2022-10-20T11:08:12.968Z,4.07
2022-10-20T11:10:48.266Z,3.80
2022-10-20T11:13:29.840Z,4.03
2022-10-20T11:16:05.152Z,4.43
2022-10-20T11:19:02.706Z,4.30
2022-10-20T11:21:36.594Z,4.07
2022-10-20T11:24:09.306Z,4.25
2022-10-20T11:26:44.463Z,4.00
2022-10-20T11:29:17.903Z,4.28
2022-10-20T11:32:08.936Z,4.00
2022-10-20T11:34:52.051Z,4.15
2022-10-20T11:37:24.573Z,3.65
2022-10-20T11:40:07.543Z,3.83
2022-10-20T11:43:00.610Z,4.10
2022-10-20T11:45:30.362Z,4.03
2022-10-20T11:48:06.701Z,4.15
2022-10-20T11:50:34.962Z,4.10
2022-10-20T11:53:34.566Z,4.32
2022-10-20T11:56:22.164Z,4.35
2022-10-20T11:59:00.656Z,4.00
2022-10-20T12:01:33.153Z,4.43
2022-10-20T12:04:11.788Z,4.57
2022-10-20T12:06:56.061Z,4.05
2022-10-20T12:09:43.685Z,4.30
2022-10-20T12:12:30.074Z,5.25
2022-10-20T12:15:00.336Z,4.75
2022-10-20T12:17:33.111Z,4.43
2022-10-20T12:20:21.636Z,5.07
2022-10-20T12:22:53.406Z,4.30
2022-10-20T12:25:26.166Z,4.13
2022-10-20T12:28:20.951Z,4.10
2022-10-20T12:31:02.692Z,4.22
2022-10-20T12:33:59.160Z,4.57
2022-10-20T12:36:31.470Z,3.95
2022-10-20T12:39:14.609Z,3.83
2022-10-20T12:41:59.083Z,3.85
2022-10-20T12:44:29.655Z,3.85
2022-10-20T12:47:07.908Z,3.90
2022-10-20T12:49:38.536Z,5.13
2022-10-20T12:52:07.519Z,5.03
2022-10-20T12:54:42.784Z,6.25
2022-10-20T12:57:35.448Z,6.90
2022-10-20T13:00:03.655Z,5.07
2022-10-20T13:02:33.356Z,5.20
2022-10-20T13:05:02.613Z,4.75
2022-10-20T13:07:48.054Z,9.68
2022-10-20T13:10:40.744Z,12.45
2022-10-20T13:13:07.364Z,8.00
2022-10-20T13:15:42.969Z,7.45
2022-10-20T13:18:12.609Z,5.22
2022-10-20T13:21:00.597Z,5.35
2022-10-20T13:23:42.105Z,4.90
2022-10-20T13:26:23.081Z,4.82
2022-10-20T13:28:52.658Z,4.22
2022-10-20T13:31:24.788Z,5.43
2022-10-20T13:34:06.005Z,5.93
2022-10-20T13:37:00.897Z,5.90
2022-10-20T13:39:44.143Z,5.22
2022-10-20T13:42:14.319Z,7.03
2022-10-20T13:45:12.628Z,8.15
2022-10-20T13:47:50.618Z,5.28
2022-10-20T13:50:36.918Z,5.53
2022-10-20T13:53:22.939Z,5.50
2022-10-20T13:56:06.931Z,5.50
2022-10-20T13:58:34.681Z,5.50
2022-10-20T14:01:05.632Z,4.43
2022-10-20T14:03:40.729Z,4.97
2022-10-20T14:06:27.384Z,4.47
2022-10-20T14:08:58.181Z,4.07
2022-10-20T14:11:29.191Z,4.35
2022-10-20T14:13:56.977Z,4.53
2022-10-20T14:16:28.055Z,4.53
2022-10-20T14:19:11.964Z,4.45
2022-10-20T14:21:49.282Z,4.30
2022-10-20T14:24:23.872Z,4.57
2022-10-20T14:26:52.189Z,4.25
2022-10-20T14:29:22.726Z,4.82
2022-10-20T14:31:49.777Z,4.35
2022-10-20T14:34:25.799Z,3.88
2022-10-20T14:36:54.899Z,3.92
2022-10-20T14:39:33.281Z,4.03
2022-10-20T14:42:01.911Z,4.35
2022-10-20T14:44:31.768Z,4.07
2022-10-20T14:47:06.580Z,3.80
2022-10-20T14:49:40.001Z,3.80
2022-10-20T14:52:23.661Z,4.13
2022-10-20T14:54:51.487Z,4.40
2022-10-20T14:57:18.557Z,4.68
2022-10-20T14:59:59.203Z,4.43
2022-10-20T15:02:28.985Z,5.47
2022-10-20T15:04:55.687Z,4.97
2022-10-20T15:07:27.744Z,4.75
2022-10-20T15:10:06.847Z,4.30
2022-10-20T15:12:38.768Z,4.45
2022-10-20T15:15:12.152Z,4.78
2022-10-20T15:17:45.243Z,5.68
2022-10-20T15:20:30.540Z,4.97
2022-10-20T15:22:59.269Z,4.80
2022-10-20T15:25:33.095Z,5.53
2022-10-20T15:27:59.983Z,7.53
2022-10-20T15:30:27.582Z,6.28
2022-10-20T15:32:54.756Z,6.00
2022-10-20T15:35:23.782Z,6.18
2022-10-20T15:37:52.769Z,6.22
2022-10-20T15:40:22.596Z,5.40
2022-10-20T15:42:49.427Z,5.95
2022-10-20T15:45:22.697Z,5.47
2022-10-20T15:47:49.357Z,6.07
2022-10-20T15:50:19.418Z,5.28
2022-10-20T15:52:48.416Z,5.97
2022-10-20T15:55:42.851Z,7.18
2022-10-20T15:58:09.798Z,10.05
2022-10-20T16:00:37.089Z,14.45
2022-10-20T16:03:05.179Z,9.15
2022-10-20T16:05:31.912Z,6.70
2022-10-20T16:07:58.785Z,7.15
2022-10-20T16:10:29.361Z,9.93
2022-10-20T16:12:57.005Z,6.78
2022-10-20T16:15:28.770Z,7.55
2022-10-20T16:17:58.207Z,9.32
2022-10-20T16:20:25.931Z,9.07
2022-10-20T16:22:52.911Z,9.93
2022-10-20T16:25:19.691Z,9.82
2022-10-20T16:27:46.469Z,8.35
2022-10-20T16:30:13.464Z,7.17
2022-10-20T16:32:40.408Z,6.10
2022-10-20T16:35:07.506Z,6.20
2022-10-20T16:37:34.645Z,7.07
2022-10-20T16:40:01.730Z,6.27
2022-10-20T16:42:30.353Z,6.70
2022-10-20T16:44:57.309Z,7.17
2022-10-20T16:47:25.485Z,7.70
2022-10-20T16:49:52.493Z,9.23
2022-10-20T16:52:19.363Z,11.90
2022-10-20T16:54:46.197Z,13.40
2022-10-20T16:57:13.869Z,13.70
2022-10-20T16:59:42.635Z,14.10
2022-10-20T17:02:12.144Z,13.47
2022-10-20T17:04:39.047Z,12.67
2022-10-20T17:07:09.070Z,12.80
2022-10-20T17:09:35.938Z,12.10
2022-10-20T17:12:02.768Z,11.90
2022-10-20T17:14:29.920Z,12.53
2022-10-20T17:16:56.895Z,12.03
2022-10-20T17:19:23.767Z,11.70
2022-10-20T17:21:55.829Z,11.23
2022-10-20T17:24:24.445Z,10.67
2022-10-20T17:26:51.286Z,10.17
2022-10-20T17:29:21.041Z,9.37
2022-10-20T17:31:50.594Z,8.80
2022-10-20T17:34:17.784Z,10.40
2022-10-20T17:36:44.638Z,9.30
2022-10-20T17:39:15.897Z,9.20
2022-10-20T17:41:43.973Z,10.20
2022-10-20T17:44:11.598Z,13.97
2022-10-20T17:46:38.974Z,15.27
2022-10-20T17:49:06.524Z,14.77
2022-10-20T17:51:34.733Z,12.80
2022-10-20T17:54:02.255Z,14.80
2022-10-20T17:56:36.025Z,16.03
2022-10-20T17:59:05.404Z,26.67
2022-10-20T18:01:34.805Z,28.17
2022-10-20T18:04:07.690Z,22.33
2022-10-20T18:06:36.222Z,20.87
2022-10-20T18:09:07.299Z,20.73
2022-10-20T18:11:35.847Z,21.17
2022-10-20T18:14:04.018Z,18.67
2022-10-20T18:16:33.286Z,16.53
2022-10-20T18:19:00.805Z,15.00
2022-10-20T18:21:29.302Z,16.07
2022-10-20T18:23:57.552Z,15.40
2022-10-20T18:26:24.852Z,14.93
2022-10-20T18:28:52.203Z,16.57
2022-10-20T18:31:24.264Z,14.33
2022-10-20T18:33:57.005Z,14.17
2022-10-20T18:36:25.152Z,15.17
2022-10-20T18:38:53.481Z,15.40
2022-10-20T18:41:26.870Z,15.90
2022-10-20T18:43:57.980Z,17.23
2022-10-20T18:46:26.308Z,17.07
2022-10-20T18:48:53.236Z,17.83
2022-10-20T18:51:20.029Z,17.00
2022-10-20T18:53:47.779Z,16.83
2022-10-20T18:56:19.847Z,13.80
2022-10-20T18:58:54.764Z,12.53
2022-10-20T19:01:24.008Z,12.70
2022-10-20T19:03:52.976Z,12.93
2022-10-20T19:06:22.504Z,13.57
2022-10-20T19:08:54.122Z,13.17
2022-10-20T19:11:23.120Z,13.47
2022-10-20T19:13:50.137Z,11.50
2022-10-20T19:16:19.427Z,11.10
2022-10-20T19:18:51.647Z,10.00
2022-10-20T19:24:01.065Z,9.63
2022-10-20T19:26:34.173Z,9.77
2022-10-20T19:29:19.501Z,9.97
2022-10-20T19:31:57.193Z,10.13
2022-10-20T19:34:42.119Z,9.57
2022-10-20T19:37:09.600Z,9.87
2022-10-20T19:39:39.513Z,11.80
2022-10-20T19:42:07.827Z,12.80
2022-10-20T19:44:35.316Z,20.10
2022-10-20T19:47:04.766Z,27.03
2022-10-20T19:49:31.626Z,17.90
2022-10-20T19:51:58.551Z,12.67
2022-10-20T19:54:25.487Z,12.23
2022-10-20T19:56:52.278Z,12.07
2022-10-20T19:59:19.107Z,11.67
2022-10-20T20:01:45.955Z,13.37
2022-10-20T20:04:12.759Z,18.83
2022-10-20T20:06:39.527Z,15.07
2022-10-20T20:09:09.031Z,12.43
2022-10-20T20:11:37.704Z,12.80
2022-10-20T20:14:14.838Z,11.53
2022-10-20T20:19:16.452Z,12.03
2022-10-20T20:21:43.529Z,13.33
2022-10-20T20:24:11.777Z,13.13
2022-10-20T20:26:38.489Z,13.37
2022-10-20T20:29:05.658Z,13.43
2022-10-20T20:31:33.160Z,12.17
2022-10-20T20:33:59.841Z,14.43
2022-10-20T20:36:27.741Z,14.23
2022-10-20T20:38:59.371Z,14.53
2022-10-20T20:41:28.353Z,14.10
2022-10-20T20:43:55.176Z,16.77
2022-10-20T20:46:23.506Z,16.10
2022-10-20T20:48:51.134Z,16.00
2022-10-20T20:51:18.059Z,14.77
2022-10-20T20:53:44.788Z,14.47
2022-10-20T20:56:14.725Z,16.33
2022-10-20T20:58:45.136Z,15.57
2022-10-20T21:01:18.290Z,15.70
2022-10-20T21:03:45.533Z,15.00
2022-10-20T21:06:15.232Z,16.93
2022-10-20T21:08:44.126Z,15.60
2022-10-20T21:11:12.431Z,14.90
2022-10-20T21:13:40.797Z,12.17
2022-10-20T21:16:16.748Z,12.50
2022-10-20T21:18:46.946Z,11.40
2022-10-20T21:21:20.103Z,12.60
2022-10-20T21:23:47.339Z,12.23
2022-10-20T21:26:16.065Z,12.03
2022-10-20T21:28:43.928Z,11.97
2022-10-20T21:31:13.552Z,12.53
2022-10-20T21:33:41.200Z,12.67
2022-10-20T21:36:15.950Z,11.67
2022-10-20T21:38:43.686Z,12.20
2022-10-20T21:41:25.449Z,11.10
2022-10-20T21:43:54.850Z,12.90
2022-10-20T21:46:27.355Z,11.80
2022-10-20T21:48:57.947Z,12.27
2022-10-20T21:51:27.639Z,12.47
2022-10-20T21:53:59.102Z,12.53
2022-10-20T21:56:26.678Z,14.03
2022-10-20T21:58:54.287Z,13.23
2022-10-20T22:01:23.634Z,12.87
2022-10-20T22:03:51.623Z,12.40
2022-10-20T22:06:20.189Z,12.60
2022-10-20T22:08:49.491Z,12.37
2022-10-20T22:11:20.325Z,10.97
2022-10-20T22:13:47.831Z,11.50
2022-10-20T22:16:17.956Z,12.30
2022-10-20T22:18:44.818Z,12.17
2022-10-20T22:21:15.573Z,12.13
2022-10-20T22:23:43.417Z,13.07
2022-10-20T22:26:10.923Z,10.50
2022-10-20T22:28:38.423Z,11.37
2022-10-20T22:31:06.273Z,12.10
2022-10-20T22:33:33.321Z,10.60
2022-10-20T22:36:00.238Z,10.80
2022-10-20T22:38:26.968Z,9.80
2022-10-20T22:40:58.559Z,10.87
2022-10-20T22:43:25.773Z,11.70
2022-10-20T22:45:52.459Z,10.80
2022-10-20T22:48:19.761Z,11.20
2022-10-20T22:50:46.541Z,11.43
2022-10-20T22:53:13.315Z,11.60
2022-10-20T22:55:39.979Z,10.17
2022-10-20T22:58:06.657Z,9.13
2022-10-20T23:00:33.564Z,9.40
2022-10-20T23:03:00.227Z,8.40
2022-10-20T23:05:26.895Z,9.17
2022-10-20T23:07:53.611Z,8.30
2022-10-20T23:10:20.278Z,8.30
2022-10-20T23:12:46.981Z,9.33
2022-10-20T23:15:13.619Z,8.30
2022-10-20T23:17:40.492Z,8.30
2022-10-20T23:20:07.625Z,8.87
2022-10-20T23:22:34.290Z,8.73
2022-10-20T23:25:02.218Z,8.17
2022-10-20T23:27:28.891Z,8.40
2022-10-20T23:29:55.564Z,8.13
2022-10-20T23:32:22.214Z,7.70
2022-10-20T23:34:48.862Z,7.57
2022-10-20T23:37:19.547Z,7.50
2022-10-20T23:39:46.529Z,7.90
2022-10-20T23:42:13.301Z,8.67
2022-10-20T23:44:40.145Z,9.30
2022-10-20T23:47:06.898Z,8.57
2022-10-20T23:49:33.562Z,8.60
2022-10-20T23:52:00.202Z,8.40
2022-10-20T23:54:26.866Z,8.60
2022-10-20T23:56:53.575Z,9.13
2022-10-20T23:59:20.268Z,9.07
